Time;durP1;ratioP1;P1;durP2;ratioP2;P2;SDS_P1;SDS_P2;PMS_P1;PMS_P2;Temp;Humidity;BMP_temperature;BMP_pressure;BME280_temperature;BME280_humidity;BME280_pressure;Samples;Min_cycle;Max_cycle;Signal;HPM_P1;HPM_P2
2021/09/11 00:00:53;;;;;;;2.20;1.10;;;21.50;99.90;;;;;;5074140;28;20216;-75
2021/09/11 00:03:18;;;;;;;1.70;1.60;;;21.50;99.90;;;;;;5077177;28;20168;-75
2021/09/11 00:05:45;;;;;;;2.27;1.40;;;21.40;99.90;;;;;;5055878;28;20287;-75
2021/09/11 00:08:10;;;;;;;1.40;0.90;;;21.40;99.90;;;;;;5073562;28;20744;-75
2021/09/11 00:10:36;;;;;;;1.73;1.20;;;21.40;99.90;;;;;;5074125;28;20586;-75
2021/09/11 00:13:02;;;;;;;1.77;1.30;;;21.30;99.90;;;;;;5073787;28;20172;-75
2021/09/11 00:15:32;;;;;;;2.00;1.67;;;21.40;99.90;;;;;;5072368;28;20936;-75
2021/09/11 00:18:02;;;;;;;2.00;1.47;;;21.30;99.90;;;;;;5073327;28;20581;-75
2021/09/11 00:20:29;;;;;;;1.73;1.30;;;21.30;99.90;;;;;;5072451;28;20624;-75
2021/09/11 00:22:59;;;;;;;2.93;1.30;;;21.30;99.90;;;;;;5073742;28;20606;-75
2021/09/11 00:25:25;;;;;;;2.30;1.37;;;21.30;99.90;;;;;;5055563;28;20659;-75
2021/09/11 00:27:51;;;;;;;1.57;1.13;;;21.20;99.90;;;;;;5071654;28;20622;-74
2021/09/11 00:30:17;;;;;;;1.83;1.30;;;21.20;99.90;;;;;;5073756;28;20647;-75
2021/09/11 00:32:43;;;;;;;3.53;1.57;;;21.20;99.90;;;;;;5073352;28;20588;-75
2021/09/11 00:35:15;;;;;;;1.47;1.17;;;21.20;99.90;;;;;;5073421;28;20593;-75
2021/09/11 00:37:42;;;;;;;1.90;1.10;;;21.10;99.90;;;;;;5073285;28;20601;-75
2021/09/11 00:40:12;;;;;;;1.90;1.23;;;21.10;99.90;;;;;;5075395;28;20586;-75
2021/09/11 00:42:40;;;;;;;2.03;1.60;;;21.10;99.90;;;;;;5072119;28;20606;-75
2021/09/11 00:45:07;;;;;;;2.57;1.27;;;21.10;99.90;;;;;;5073173;28;20567;-75
2021/09/11 00:47:32;;;;;;;2.97;1.27;;;21.10;99.90;;;;;;5072628;28;20602;-75
2021/09/11 00:49:59;;;;;;;1.80;1.47;;;21.10;99.90;;;;;;5071963;28;20559;-75
2021/09/11 00:52:25;;;;;;;2.20;1.60;;;21.20;99.90;;;;;;5072881;28;20220;-75
2021/09/11 00:54:51;;;;;;;4.63;1.30;;;21.10;99.90;;;;;;5072940;28;21011;-75
2021/09/11 00:57:18;;;;;;;1.67;1.43;;;21.20;99.90;;;;;;5072548;28;20233;-75
2021/09/11 00:59:44;;;;;;;1.73;1.60;;;21.20;99.90;;;;;;5072800;28;20635;-76
2021/09/11 01:02:09;;;;;;;2.07;1.13;;;21.10;99.90;;;;;;5072960;28;20567;-75
2021/09/11 01:04:35;;;;;;;5.60;2.00;;;21.20;99.90;;;;;;5071447;28;21113;-75
2021/09/11 01:07:01;;;;;;;2.37;1.30;;;21.20;99.90;;;;;;5070796;28;20192;-75
2021/09/11 01:09:27;;;;;;;5.53;1.90;;;21.20;99.90;;;;;;5054472;28;20200;-75
2021/09/11 01:11:53;;;;;;;2.43;1.60;;;21.20;99.90;;;;;;5055000;28;20582;-75
2021/09/11 01:14:19;;;;;;;3.07;1.57;;;21.20;99.90;;;;;;5074054;28;20574;-75
2021/09/11 01:16:45;;;;;;;3.83;1.57;;;21.10;99.90;;;;;;5056364;28;20617;-75
2021/09/11 01:19:11;;;;;;;1.93;1.33;;;21.20;99.90;;;;;;5072583;28;20267;-75
2021/09/11 01:21:36;;;;;;;1.60;1.10;;;21.20;99.90;;;;;;5072740;28;20588;-76
2021/09/11 01:24:02;;;;;;;2.07;1.40;;;21.20;99.90;;;;;;5072504;28;20527;-75
2021/09/11 01:26:28;;;;;;;3.60;1.30;;;21.20;99.90;;;;;;5072040;28;20243;-76
2021/09/11 01:28:54;;;;;;;1.73;1.20;;;21.20;99.90;;;;;;5072069;28;20725;-75
2021/09/11 01:31:20;;;;;;;1.90;1.20;;;21.20;99.90;;;;;;5054526;28;20349;-76
2021/09/11 01:33:45;;;;;;;1.50;1.20;;;21.20;99.90;;;;;;5072423;28;20172;-76
2021/09/11 01:36:11;;;;;;;1.93;1.50;;;21.20;99.90;;;;;;5071749;28;20188;-76
2021/09/11 01:38:37;;;;;;;1.90;1.50;;;21.20;99.90;;;;;;5071803;28;20187;-75
2021/09/11 01:41:02;;;;;;;1.60;1.13;;;21.20;99.90;;;;;;5071547;28;20326;-75
2021/09/11 01:43:34;;;;;;;2.40;1.33;;;21.20;99.90;;;;;;5071621;28;20224;-75
2021/09/11 01:46:00;;;;;;;2.13;1.60;;;21.10;99.90;;;;;;5045482;28;20196;-76
2021/09/11 01:48:29;;;;;;;1.93;1.60;;;21.10;99.90;;;;;;5053891;28;21201;-76
2021/09/11 01:50:55;;;;;;;2.00;1.70;;;21.00;99.90;;;;;;5057362;28;20595;-75
2021/09/11 01:53:21;;;;;;;1.87;1.70;;;21.00;99.90;;;;;;5073585;28;20562;-75
2021/09/11 01:55:47;;;;;;;2.30;1.60;;;21.00;99.90;;;;;;5071203;28;20722;-75
2021/09/11 01:58:13;;;;;;;2.90;1.50;;;21.00;99.90;;;;;;5061920;28;20607;-75
2021/09/11 02:00:39;;;;;;;2.20;1.60;;;20.90;99.90;;;;;;5071597;28;20764;-75
2021/09/11 02:03:06;;;;;;;1.57;1.47;;;20.90;99.90;;;;;;5069651;28;20260;-76
2021/09/11 02:05:32;;;;;;;2.27;1.57;;;20.90;99.90;;;;;;5071651;28;20633;-76
2021/09/11 02:07:58;;;;;;;3.87;2.10;;;20.90;99.90;;;;;;5070064;28;20619;-75
2021/09/11 02:10:23;;;;;;;2.23;1.60;;;20.80;99.90;;;;;;5071629;28;20574;-76
2021/09/11 02:12:49;;;;;;;2.27;2.00;;;20.80;99.90;;;;;;5071595;28;20199;-76
2021/09/11 02:15:15;;;;;;;2.17;1.80;;;20.80;99.90;;;;;;5072181;28;20168;-75
2021/09/11 02:17:41;;;;;;;2.13;1.70;;;20.80;99.90;;;;;;5072139;28;20194;-75
2021/09/11 02:20:09;;;;;;;2.57;1.67;;;20.80;99.90;;;;;;5070016;28;20175;-75
2021/09/11 02:22:35;;;;;;;2.03;1.60;;;20.80;99.90;;;;;;5071370;28;20630;-75
2021/09/11 02:25:01;;;;;;;3.40;1.67;;;20.90;99.90;;;;;;5071659;28;20601;-75
2021/09/11 02:27:27;;;;;;;5.27;2.20;;;20.90;99.90;;;;;;5057667;28;20642;-75
2021/09/11 02:29:53;;;;;;;1.93;1.57;;;20.90;99.90;;;;;;5072954;28;20598;-75
2021/09/11 02:32:19;;;;;;;2.70;1.60;;;21.00;99.90;;;;;;5071787;28;20171;-75
2021/09/11 02:34:44;;;;;;;2.37;2.17;;;21.00;99.90;;;;;;5070264;28;20186;-75
2021/09/11 02:37:11;;;;;;;2.10;1.73;;;21.00;99.90;;;;;;5069705;28;20774;-75
2021/09/11 02:39:38;;;;;;;2.10;1.57;;;21.00;99.90;;;;;;5071374;28;20161;-76
2021/09/11 02:42:05;;;;;;;1.90;1.80;;;21.00;99.90;;;;;;5071290;28;20603;-76
2021/09/11 02:44:31;;;;;;;2.20;1.87;;;21.10;99.90;;;;;;5070989;28;20563;-76
2021/09/11 02:46:56;;;;;;;2.37;2.17;;;21.10;99.90;;;;;;5069524;28;20617;-76
2021/09/11 02:49:22;;;;;;;3.23;1.93;;;21.10;99.90;;;;;;5071293;28;20200;-75
2021/09/11 02:51:48;;;;;;;1.70;1.50;;;21.10;99.90;;;;;;5069819;28;20169;-75
2021/09/11 02:54:13;;;;;;;2.73;1.90;;;21.20;99.90;;;;;;5069890;28;20317;-75
2021/09/11 02:56:39;;;;;;;4.07;2.33;;;21.20;99.90;;;;;;5070699;28;20226;-75
2021/09/11 02:59:05;;;;;;;4.60;3.00;;;21.20;99.90;;;;;;5071184;28;20233;-75
2021/09/11 03:01:30;;;;;;;4.20;3.27;;;21.20;99.90;;;;;;5071128;28;20247;-75
2021/09/11 03:03:56;;;;;;;3.57;3.27;;;21.30;99.90;;;;;;5074429;28;20165;-75
2021/09/11 03:06:22;;;;;;;3.33;3.03;;;21.30;99.90;;;;;;5054914;28;20211;-75
2021/09/11 03:08:48;;;;;;;3.40;3.10;;;21.30;99.90;;;;;;5070823;28;20228;-75
2021/09/11 03:11:13;;;;;;;3.93;2.77;;;21.30;99.90;;;;;;5071225;28;20570;-75
2021/09/11 03:13:42;;;;;;;3.50;3.20;;;21.30;99.90;;;;;;5071056;28;20169;-75
2021/09/11 03:16:09;;;;;;;4.03;3.60;;;21.30;99.90;;;;;;5053117;28;20193;-75
2021/09/11 03:18:34;;;;;;;4.27;3.90;;;21.30;99.90;;;;;;5070606;28;20574;-76
2021/09/11 03:21:00;;;;;;;4.07;3.70;;;21.40;99.90;;;;;;5069762;28;21125;-76
2021/09/11 03:23:26;;;;;;;3.80;2.93;;;21.40;99.90;;;;;;5069734;28;20518;-75
2021/09/11 03:25:52;;;;;;;3.80;3.50;;;21.40;99.90;;;;;;5070730;28;20602;-75
2021/09/11 03:28:18;;;;;;;3.77;3.47;;;21.40;99.90;;;;;;5052491;28;20208;-75
2021/09/11 03:30:43;;;;;;;3.50;3.20;;;21.40;99.90;;;;;;5073370;28;20559;-75
2021/09/11 03:33:09;;;;;;;4.70;3.20;;;21.40;99.90;;;;;;5074709;28;20172;-75
2021/09/11 03:35:35;;;;;;;4.07;3.67;;;21.40;99.90;;;;;;5073124;28;20172;-75
2021/09/11 03:38:01;;;;;;;6.97;3.30;;;21.40;99.90;;;;;;5074376;28;20194;-75
2021/09/11 03:40:26;;;;;;;4.77;4.20;;;21.40;99.90;;;;;;5075887;28;20179;-76
2021/09/11 03:42:52;;;;;;;4.67;3.97;;;21.40;99.90;;;;;;5076245;28;20648;-76
2021/09/11 03:45:18;;;;;;;5.23;4.50;;;21.40;99.90;;;;;;5074339;28;20581;-76
2021/09/11 03:47:44;;;;;;;7.63;3.47;;;21.40;99.90;;;;;;5072657;28;20198;-75
2021/09/11 03:50:09;;;;;;;5.60;5.10;;;21.40;99.90;;;;;;5074189;28;20255;-75
2021/09/11 03:52:36;;;;;;;6.00;5.50;;;21.50;99.90;;;;;;5074271;28;20252;-76
2021/09/11 03:55:03;;;;;;;5.70;5.20;;;21.40;99.90;;;;;;5074241;28;20978;-75
2021/09/11 03:57:29;;;;;;;8.97;5.83;;;21.50;99.90;;;;;;5072502;28;20624;-75
2021/09/11 03:59:55;;;;;;;6.07;5.47;;;21.50;99.90;;;;;;5073063;28;21196;-75
2021/09/11 04:02:20;;;;;;;4.73;4.33;;;21.50;99.90;;;;;;5073930;28;20169;-75
2021/09/11 04:04:46;;;;;;;6.03;5.30;;;21.50;99.90;;;;;;5072848;28;20190;-75
2021/09/11 04:07:12;;;;;;;6.03;5.20;;;21.50;99.90;;;;;;5072536;28;20199;-75
2021/09/11 04:09:37;;;;;;;6.87;5.70;;;21.50;99.90;;;;;;5072792;28;20259;-75
2021/09/11 04:12:03;;;;;;;7.73;5.27;;;21.50;99.90;;;;;;5072743;28;20172;-76
2021/09/11 04:14:29;;;;;;;8.07;4.87;;;21.50;99.90;;;;;;5074165;28;20190;-76
2021/09/11 04:16:55;;;;;;;5.57;4.30;;;21.40;99.90;;;;;;5076203;28;20597;-76
2021/09/11 04:19:20;;;;;;;4.87;3.90;;;21.40;99.90;;;;;;5074601;28;20251;-75
2021/09/11 04:21:46;;;;;;;5.33;4.83;;;21.40;99.90;;;;;;5055918;28;20267;-76
2021/09/11 04:24:12;;;;;;;4.90;4.03;;;21.40;99.90;;;;;;5073684;28;20570;-75
2021/09/11 04:26:41;;;;;;;5.63;3.90;;;21.40;99.90;;;;;;5073636;28;20286;-75
2021/09/11 04:29:06;;;;;;;4.80;3.90;;;21.40;99.90;;;;;;5055340;28;20200;-75
2021/09/11 04:31:32;;;;;;;4.10;3.40;;;21.40;99.90;;;;;;5073726;28;20591;-74
2021/09/11 04:33:58;;;;;;;5.43;3.70;;;21.40;99.90;;;;;;5073496;28;20310;-74
2021/09/11 04:36:24;;;;;;;4.57;3.77;;;21.40;99.90;;;;;;5071845;28;20602;-74
2021/09/11 04:38:50;;;;;;;3.57;2.80;;;21.50;99.90;;;;;;5073247;28;20567;-75
2021/09/11 04:41:15;;;;;;;5.63;4.30;;;21.50;99.90;;;;;;5072286;28;20172;-74
2021/09/11 04:43:41;;;;;;;3.60;2.93;;;21.50;99.90;;;;;;5072299;28;20168;-74
2021/09/11 04:46:07;;;;;;;3.60;3.30;;;21.50;99.90;;;;;;5072981;28;20328;-74
2021/09/11 04:48:33;;;;;;;3.60;2.93;;;21.50;99.90;;;;;;5072803;28;20690;-75
2021/09/11 04:50:59;;;;;;;4.37;3.17;;;21.50;99.90;;;;;;5073076;28;20161;-75
2021/09/11 04:53:25;;;;;;;3.37;3.10;;;21.50;99.90;;;;;;5075033;28;20578;-75
2021/09/11 04:55:50;;;;;;;3.10;2.73;;;21.50;99.90;;;;;;5075908;28;20634;-74
2021/09/11 04:58:16;;;;;;;3.17;2.70;;;21.50;99.90;;;;;;5071484;28;20172;-75
2021/09/11 05:00:42;;;;;;;4.33;3.30;;;21.50;99.90;;;;;;5073145;28;20574;-74
2021/09/11 05:03:08;;;;;;;3.10;2.90;;;21.40;99.90;;;;;;5072723;28;20185;-74
2021/09/11 05:05:33;;;;;;;3.73;3.40;;;21.40;99.90;;;;;;5072622;28;20546;-74
2021/09/11 05:07:59;;;;;;;4.03;3.43;;;21.40;99.90;;;;;;5072296;28;20245;-74
2021/09/11 05:10:26;;;;;;;3.60;2.20;;;21.40;99.90;;;;;;5072751;28;20160;-74
2021/09/11 05:12:52;;;;;;;3.97;2.13;;;21.40;99.90;;;;;;5072542;28;20640;-74
2021/09/11 05:15:19;;;;;;;3.20;2.63;;;21.40;99.90;;;;;;5072780;28;20570;-74
2021/09/11 05:17:45;;;;;;;3.80;2.30;;;21.40;99.90;;;;;;5072079;28;20609;-74
2021/09/11 05:20:11;;;;;;;2.67;2.40;;;21.40;99.90;;;;;;5072665;28;20574;-74
2021/09/11 05:22:38;;;;;;;3.13;1.90;;;21.40;99.90;;;;;;5072260;28;20180;-74
2021/09/11 05:25:09;;;;;;;3.30;1.80;;;21.40;99.90;;;;;;5072488;28;20574;-73
2021/09/11 05:27:35;;;;;;;3.00;2.70;;;21.40;99.90;;;;;;5069810;28;20645;-74
2021/09/11 05:30:02;;;;;;;2.80;2.40;;;21.40;99.90;;;;;;5082325;28;20599;-74
2021/09/11 05:32:28;;;;;;;3.70;2.10;;;21.40;99.90;;;;;;5074575;28;20942;-74
2021/09/11 05:34:54;;;;;;;2.87;1.50;;;21.40;99.90;;;;;;5075028;28;20591;-73
2021/09/11 05:37:19;;;;;;;2.30;1.30;;;21.40;99.90;;;;;;5071380;28;20196;-74
2021/09/11 05:39:45;;;;;;;1.90;1.50;;;21.40;99.90;;;;;;5072072;28;20180;-74
2021/09/11 05:42:11;;;;;;;2.47;1.50;;;21.40;99.90;;;;;;5071076;28;20183;-74
2021/09/11 05:44:38;;;;;;;2.80;2.00;;;21.40;99.90;;;;;;5070928;28;20203;-75
2021/09/11 05:47:04;;;;;;;3.73;2.10;;;21.40;99.90;;;;;;5071399;28;20633;-74
2021/09/11 05:49:29;;;;;;;2.00;1.67;;;21.40;99.90;;;;;;5071719;28;20622;-74
2021/09/11 05:51:55;;;;;;;2.10;1.53;;;21.40;99.90;;;;;;5070829;28;20574;-74
2021/09/11 05:54:21;;;;;;;3.10;1.77;;;21.40;99.90;;;;;;5070420;28;20157;-74
2021/09/11 05:56:47;;;;;;;3.60;1.40;;;21.50;99.90;;;;;;5071628;28;20185;-74
2021/09/11 05:59:12;;;;;;;3.10;1.70;;;21.50;99.90;;;;;;5072699;28;20669;-74
2021/09/11 06:01:40;;;;;;;6.90;1.67;;;21.50;99.90;;;;;;5070730;28;20172;-74
2021/09/11 06:04:06;;;;;;;2.23;1.23;;;21.50;99.90;;;;;;5070671;28;20164;-75
2021/09/11 06:06:32;;;;;;;4.23;1.63;;;21.60;99.90;;;;;;5074484;28;20954;-75
2021/09/11 06:08:58;;;;;;;4.30;1.77;;;21.60;99.90;;;;;;5073764;28;20618;-74
2021/09/11 06:11:23;;;;;;;3.00;1.83;;;21.60;99.90;;;;;;5071844;28;20583;-74
2021/09/11 06:13:49;;;;;;;3.53;1.57;;;21.70;99.90;;;;;;5071982;28;20175;-74
2021/09/11 06:16:15;;;;;;;5.40;1.40;;;21.70;99.90;;;;;;5071514;28;20188;-74
2021/09/11 06:18:41;;;;;;;2.10;1.20;;;21.70;99.90;;;;;;5053220;28;20180;-74
2021/09/11 06:21:07;;;;;;;1.80;1.30;;;21.70;99.90;;;;;;5071764;28;20254;-74
2021/09/11 06:23:33;;;;;;;8.23;1.87;;;21.70;99.90;;;;;;5071567;28;20669;-74
2021/09/11 06:26:00;;;;;;;2.83;1.50;;;21.70;99.90;;;;;;5071561;28;21167;-74
2021/09/11 06:28:27;;;;;;;1.80;1.27;;;21.70;99.90;;;;;;5071019;28;20200;-75
2021/09/11 06:30:53;;;;;;;3.03;1.87;;;21.80;99.90;;;;;;5070299;28;20913;-73
2021/09/11 06:33:19;;;;;;;2.83;1.27;;;21.80;99.90;;;;;;5070170;28;21114;-74
2021/09/11 06:35:45;;;;;;;2.70;1.00;;;21.90;99.90;;;;;;5071490;28;20577;-74
2021/09/11 06:38:11;;;;;;;2.87;1.20;;;21.90;99.90;;;;;;5071091;28;20656;-74
2021/09/11 06:40:37;;;;;;;3.40;1.30;;;22.00;99.90;;;;;;5071579;28;20528;-74
2021/09/11 06:43:02;;;;;;;1.77;1.00;;;22.00;99.90;;;;;;5073681;28;20679;-74
2021/09/11 06:45:28;;;;;;;2.43;1.30;;;22.10;99.90;;;;;;5074178;28;21109;-74
2021/09/11 06:47:54;;;;;;;2.53;1.17;;;22.20;99.90;;;;;;5071181;28;20267;-75
2021/09/11 06:50:20;;;;;;;2.57;1.33;;;22.30;99.90;;;;;;5071447;28;20716;-74
2021/09/11 06:52:46;;;;;;;1.70;1.10;;;22.50;99.90;;;;;;5071538;28;20165;-74
2021/09/11 06:55:11;;;;;;;1.77;1.00;;;22.60;99.90;;;;;;5071291;28;20563;-75
2021/09/11 06:57:37;;;;;;;8.73;1.50;;;22.80;99.90;;;;;;5070698;28;20199;-73
2021/09/11 07:00:05;;;;;;;2.27;1.10;;;23.00;99.90;;;;;;5071292;28;20189;-75
2021/09/11 07:02:30;;;;;;;1.30;0.90;;;23.10;99.90;;;;;;5070284;28;20169;-74
2021/09/11 07:04:56;;;;;;;3.00;1.10;;;23.20;99.90;;;;;;5072361;28;20569;-74
2021/09/11 07:07:22;;;;;;;2.77;0.90;;;23.60;99.90;;;;;;5074673;28;20632;-74
2021/09/11 07:09:47;;;;;;;2.27;0.97;;;24.50;99.90;;;;;;5075048;28;20203;-74
2021/09/11 07:12:15;;;;;;;1.40;0.80;;;25.60;99.90;;;;;;5075237;28;20196;-74
2021/09/11 07:14:41;;;;;;;2.77;0.93;;;26.50;99.90;;;;;;5075625;28;20521;-74
2021/09/11 07:17:07;;;;;;;2.33;1.10;;;26.90;99.90;;;;;;5074630;28;20600;-74
2021/09/11 07:19:32;;;;;;;2.60;1.07;;;27.20;99.90;;;;;;5075735;28;20669;-74
2021/09/11 07:21:58;;;;;;;3.07;1.20;;;27.30;99.90;;;;;;5076718;28;20589;-74
2021/09/11 07:24:24;;;;;;;1.40;0.90;;;27.30;99.90;;;;;;5074544;28;20202;-74
2021/09/11 07:26:49;;;;;;;2.20;1.00;;;27.60;99.90;;;;;;5074115;28;20211;-74
2021/09/11 07:29:15;;;;;;;2.17;1.10;;;27.90;99.90;;;;;;5074152;28;20558;-73
2021/09/11 07:31:41;;;;;;;2.13;1.03;;;28.50;99.90;;;;;;5074340;28;20221;-73
2021/09/11 07:34:07;;;;;;;1.60;0.90;;;29.20;99.90;;;;;;5074224;28;20177;-73
2021/09/11 07:36:33;;;;;;;3.00;1.40;;;29.90;99.90;;;;;;5056145;28;20219;-74
2021/09/11 07:38:59;;;;;;;2.23;0.83;;;30.70;99.90;;;;;;5073834;28;20582;-74
2021/09/11 07:41:25;;;;;;;1.90;0.90;;;31.40;99.90;;;;;;5074025;28;20587;-73
2021/09/11 07:43:50;;;;;;;1.70;0.80;;;32.00;99.90;;;;;;5056451;28;20180;-74
2021/09/11 07:46:16;;;;;;;1.73;0.90;;;32.80;99.90;;;;;;5073941;28;20703;-73
2021/09/11 07:48:42;;;;;;;2.10;0.70;;;33.50;99.90;;;;;;5073736;28;20671;-73
2021/09/11 07:51:07;;;;;;;1.80;0.70;;;34.10;99.90;;;;;;5074318;28;20523;-75
2021/09/11 07:53:33;;;;;;;1.47;0.73;;;34.80;99.90;;;;;;5057053;28;20203;-74
2021/09/11 07:56:00;;;;;;;2.60;0.93;;;35.40;99.90;;;;;;5074371;28;20228;-75
2021/09/11 07:58:26;;;;;;;3.20;1.20;;;36.00;99.90;;;;;;5076649;28;20222;-75
2021/09/11 08:00:54;;;;;;;1.90;1.00;;;36.50;99.10;;;;;;5074572;28;20963;-75
2021/09/11 08:03:19;;;;;;;1.80;0.90;;;37.00;97.40;;;;;;5074550;28;20171;-75
2021/09/11 08:05:45;;;;;;;1.60;0.90;;;37.50;95.70;;;;;;5073961;28;20563;-75
2021/09/11 08:08:11;;;;;;;1.43;0.80;;;37.80;94.30;;;;;;5074016;28;20624;-75
2021/09/11 08:10:36;;;;;;;2.37;0.90;;;38.10;92.00;;;;;;5076915;28;20167;-75
2021/09/11 08:13:02;;;;;;;2.67;1.50;;;38.20;90.70;;;;;;5077046;28;20331;-74
2021/09/11 08:15:28;;;;;;;2.13;1.30;;;38.50;88.80;;;;;;5055793;28;20176;-74
2021/09/11 08:17:55;;;;;;;2.57;0.90;;;38.70;86.60;;;;;;5073800;28;20574;-75
2021/09/11 08:20:21;;;;;;;2.60;1.27;;;38.80;84.50;;;;;;5074047;28;20168;-75
2021/09/11 08:22:47;;;;;;;1.87;0.80;;;39.00;82.30;;;;;;5055664;28;20585;-75
2021/09/11 08:25:13;;;;;;;1.90;1.13;;;39.00;78.50;;;;;;5056086;28;20562;-74
2021/09/11 08:27:39;;;;;;;2.77;1.10;;;38.70;76.30;;;;;;5038756;28;20196;-74
2021/09/11 08:30:06;;;;;;;2.93;1.20;;;38.20;74.20;;;;;;5055814;28;21066;-74
2021/09/11 08:32:35;;;;;;;2.27;0.80;;;37.60;71.90;;;;;;5040164;28;20782;-75
2021/09/11 08:35:02;;;;;;;2.10;0.90;;;36.90;69.50;;;;;;5058238;28;20574;-74
2021/09/11 08:37:27;;;;;;;2.50;1.07;;;36.20;70.30;;;;;;5073027;28;20642;-74
2021/09/11 08:39:53;;;;;;;2.03;1.03;;;35.40;69.50;;;;;;5073502;28;20570;-74
2021/09/11 08:42:20;;;;;;;2.43;0.90;;;34.60;69.70;;;;;;5073294;28;20193;-74
2021/09/11 08:44:47;;;;;;;2.00;0.93;;;33.80;69.50;;;;;;5055582;28;20221;-74
2021/09/11 08:47:12;;;;;;;2.17;0.70;;;33.10;70.10;;;;;;5072876;28;20693;-74
2021/09/11 08:49:38;;;;;;;1.50;0.70;;;32.50;71.00;;;;;;5073407;28;20787;-74
2021/09/11 08:52:07;;;;;;;2.47;0.83;;;32.20;72.90;;;;;;5072861;28;20161;-74
2021/09/11 08:54:34;;;;;;;1.30;0.80;;;32.00;73.20;;;;;;5072343;28;20179;-75
2021/09/11 08:57:18;;;;;;;1.37;0.70;;;32.20;75.00;;;;;;5072525;28;20634;-74
2021/09/11 08:59:43;;;;;;;1.70;0.80;;;32.70;75.80;;;;;;5073065;28;20569;-75
2021/09/11 09:02:10;;;;;;;1.40;0.67;;;33.40;78.00;;;;;;5055049;28;20570;-75
2021/09/11 09:05:03;;;;;;;1.70;0.73;;;34.10;77.40;;;;;;5055161;28;20642;-74
2021/09/11 09:07:39;;;;;;;1.87;0.80;;;35.00;77.80;;;;;;5070302;28;21204;-74
2021/09/11 09:10:15;;;;;;;2.13;0.80;;;35.80;76.20;;;;;;5057189;28;20691;-75
2021/09/11 09:12:44;;;;;;;2.40;0.63;;;36.30;71.70;;;;;;5072830;28;20670;-74
2021/09/11 09:15:10;;;;;;;1.80;0.60;;;36.50;70.50;;;;;;5072895;28;20555;-75
2021/09/11 09:17:43;;;;;;;1.43;0.70;;;36.70;68.60;;;;;;5054243;28;20645;-75
2021/09/11 09:20:22;;;;;;;1.60;0.60;;;36.80;66.50;;;;;;5054815;28;20578;-74
2021/09/11 09:23:08;;;;;;;1.57;0.70;;;37.10;66.50;;;;;;5071033;28;20605;-75
2021/09/11 09:25:36;;;;;;;1.63;0.70;;;37.30;66.50;;;;;;5072103;28;20627;-75
2021/09/11 09:28:04;;;;;;;1.57;0.80;;;37.50;65.40;;;;;;5053591;28;20578;-75
2021/09/11 09:30:49;;;;;;;1.30;0.80;;;37.70;64.30;;;;;;5072302;28;20566;-76
2021/09/11 09:33:27;;;;;;;1.50;0.83;;;38.10;63.70;;;;;;5071182;28;20585;-77
2021/09/11 09:35:53;;;;;;;1.70;0.50;;;38.20;62.10;;;;;;5072160;28;20594;-77
2021/09/11 09:38:19;;;;;;;1.40;0.80;;;38.00;60.70;;;;;;5071759;28;20670;-77
2021/09/11 09:40:51;;;;;;;1.40;0.80;;;38.10;60.10;;;;;;5054826;28;20634;-78
2021/09/11 09:43:34;;;;;;;1.83;0.70;;;38.00;59.20;;;;;;5072883;28;20605;-78
2021/09/11 09:46:03;;;;;;;1.50;0.77;;;38.30;59.10;;;;;;5057143;28;20606;-77
2021/09/11 09:48:29;;;;;;;1.57;0.80;;;38.50;59.20;;;;;;5072953;28;20709;-77
2021/09/11 09:51:04;;;;;;;1.40;0.77;;;38.50;58.10;;;;;;5072533;28;20620;-78
2021/09/11 09:53:29;;;;;;;1.47;1.00;;;38.20;57.00;;;;;;5054423;28;20176;-78
2021/09/11 09:55:56;;;;;;;1.47;1.00;;;37.80;56.60;;;;;;5071252;28;21189;-77
2021/09/11 09:58:21;;;;;;;1.87;1.03;;;37.30;56.10;;;;;;5075019;28;20168;-77
2021/09/11 10:00:48;;;;;;;1.40;0.60;;;36.70;55.60;;;;;;5073631;28;20601;-77
2021/09/11 10:03:14;;;;;;;2.43;1.50;;;36.40;56.50;;;;;;5074574;28;20164;-77
2021/09/11 10:05:42;;;;;;;1.80;0.80;;;36.40;58.30;;;;;;5091911;28;21024;-77
2021/09/11 10:08:09;;;;;;;1.27;0.67;;;36.70;58.30;;;;;;5075128;28;20730;-77
2021/09/11 10:10:39;;;;;;;2.07;0.70;;;37.10;59.00;;;;;;5074316;28;20582;-77
2021/09/11 10:13:08;;;;;;;1.53;0.67;;;37.50;58.20;;;;;;5056890;28;20608;-77
2021/09/11 10:15:38;;;;;;;1.47;0.83;;;37.90;57.30;;;;;;5081838;28;20600;-76
2021/09/11 10:18:25;;;;;;;1.67;0.80;;;37.80;56.10;;;;;;5072448;28;20559;-76
2021/09/11 10:21:13;;;;;;;1.40;0.70;;;37.50;55.30;;;;;;5071905;28;20731;-77
2021/09/11 10:23:43;;;;;;;2.40;0.73;;;36.80;53.90;;;;;;5057257;28;20550;-76
2021/09/11 10:26:48;;;;;;;1.60;0.80;;;36.00;54.00;;;;;;5071289;28;20623;-76
2021/09/11 10:29:33;;;;;;;2.13;0.60;;;35.20;54.10;;;;;;5041957;28;20780;-83
2021/09/11 10:32:06;;;;;;;3.50;0.80;;;34.40;55.30;;;;;;5071370;28;20565;-82
2021/09/11 10:34:56;;;;;;;1.73;0.70;;;33.80;56.00;;;;;;5071486;28;20578;-81
2021/09/11 10:38:13;;;;;;;2.10;0.67;;;33.50;56.90;;;;;;5053566;28;20613;-82
2021/09/11 10:40:44;;;;;;;3.17;0.80;;;33.40;58.10;;;;;;5039822;28;20986;-82
2021/09/11 10:43:31;;;;;;;4.60;1.20;;;33.40;58.70;;;;;;5075732;28;20735;-82
2021/09/11 10:45:59;;;;;;;4.23;2.30;;;33.40;58.60;;;;;;5057680;28;20602;-81
2021/09/11 10:48:42;;;;;;;3.10;1.00;;;33.30;58.20;;;;;;5057102;28;20629;-81
2021/09/11 10:51:24;;;;;;;1.50;0.73;;;33.10;57.60;;;;;;5075359;28;20560;-81
2021/09/11 10:54:25;;;;;;;2.13;0.63;;;32.90;57.50;;;;;;5075652;28;20571;-81
2021/09/11 10:57:02;;;;;;;1.80;0.70;;;32.70;58.10;;;;;;5056540;28;20626;-81
2021/09/11 10:59:41;;;;;;;1.70;0.80;;;32.70;59.10;;;;;;5059565;28;20579;-75
2021/09/11 11:02:33;;;;;;;1.33;0.70;;;32.70;58.80;;;;;;5073786;28;20568;-75
2021/09/11 11:05:10;;;;;;;1.30;0.70;;;32.70;58.80;;;;;;5056775;28;20671;-75
2021/09/11 11:07:42;;;;;;;1.40;0.70;;;32.60;58.40;;;;;;5074550;28;20722;-75
2021/09/11 11:10:11;;;;;;;1.80;0.60;;;32.20;58.20;;;;;;5057045;28;20617;-75
2021/09/11 11:12:49;;;;;;;1.20;0.60;;;31.80;58.10;;;;;;5074821;28;20590;-75
2021/09/11 11:15:17;;;;;;;1.30;0.70;;;31.40;58.50;;;;;;5074895;28;20558;-75
2021/09/11 11:17:45;;;;;;;1.20;0.60;;;31.00;58.40;;;;;;5074381;28;20590;-75
2021/09/11 11:20:12;;;;;;;1.60;0.70;;;30.50;58.60;;;;;;5075018;28;20934;-75
2021/09/11 11:22:41;;;;;;;1.30;1.00;;;30.10;58.90;;;;;;5056665;28;20591;-76
2021/09/11 11:25:13;;;;;;;2.63;0.93;;;29.70;59.40;;;;;;5074863;28;20657;-75
2021/09/11 11:27:39;;;;;;;2.43;1.60;;;29.30;59.80;;;;;;5074050;28;20609;-75
2021/09/11 11:30:07;;;;;;;2.90;1.97;;;29.00;60.40;;;;;;5074617;28;20776;-75
2021/09/11 11:32:37;;;;;;;3.40;2.00;;;28.70;61.30;;;;;;5074530;28;20585;-75
2021/09/11 11:35:06;;;;;;;1.83;0.90;;;28.60;62.10;;;;;;5074800;28;20616;-75
2021/09/11 11:37:37;;;;;;;1.80;1.00;;;28.40;62.80;;;;;;5060288;28;20598;-75
2021/09/11 11:40:07;;;;;;;2.03;0.80;;;28.30;63.60;;;;;;5074697;28;20566;-75
2021/09/11 11:42:34;;;;;;;1.40;0.70;;;28.30;64.10;;;;;;5074350;28;20583;-75
2021/09/11 11:45:01;;;;;;;1.40;0.80;;;28.20;64.40;;;;;;5056641;28;20581;-75
2021/09/11 11:47:46;;;;;;;1.80;1.03;;;28.20;64.70;;;;;;5073804;28;20602;-75
2021/09/11 11:50:23;;;;;;;1.73;1.27;;;28.10;65.40;;;;;;5039074;28;20634;-75
2021/09/11 11:53:01;;;;;;;2.20;1.30;;;28.10;65.40;;;;;;5074168;28;20569;-75
2021/09/11 11:55:29;;;;;;;1.50;0.83;;;28.10;65.60;;;;;;5074170;28;20987;-75
2021/09/11 11:58:11;;;;;;;1.90;0.80;;;28.10;65.70;;;;;;5055721;28;20681;-75
2021/09/11 12:00:53;;;;;;;1.40;0.70;;;28.00;66.00;;;;;;5056316;28;20566;-75
2021/09/11 12:03:43;;;;;;;1.80;1.30;;;28.00;66.00;;;;;;5056136;28;21243;-75
2021/09/11 12:06:29;;;;;;;1.60;0.83;;;28.00;66.30;;;;;;5055975;28;20606;-74
2021/09/11 12:09:01;;;;;;;1.60;0.80;;;27.90;66.60;;;;;;5055096;28;20646;-76
2021/09/11 12:11:27;;;;;;;1.70;0.90;;;27.80;66.70;;;;;;5055974;28;20571;-76
2021/09/11 12:13:59;;;;;;;2.17;0.70;;;27.70;66.80;;;;;;5059830;28;20573;-76
2021/09/11 12:16:27;;;;;;;1.60;0.77;;;27.60;67.20;;;;;;5073869;28;20613;-76
2021/09/11 12:18:53;;;;;;;1.60;0.60;;;27.60;67.60;;;;;;5055379;28;20683;-75
2021/09/11 12:21:19;;;;;;;3.33;1.40;;;27.60;68.40;;;;;;5073847;28;20590;-75
2021/09/11 12:23:47;;;;;;;1.80;0.90;;;27.60;68.90;;;;;;5073448;28;21145;-76
2021/09/11 12:26:14;;;;;;;1.30;0.80;;;27.70;69.20;;;;;;5055473;28;20614;-75
2021/09/11 12:28:49;;;;;;;1.67;1.00;;;27.80;69.20;;;;;;5055202;28;20968;-76
2021/09/11 12:31:16;;;;;;;3.27;0.80;;;27.80;70.10;;;;;;5039273;28;20566;-75
2021/09/11 12:34:03;;;;;;;1.40;0.63;;;27.90;69.30;;;;;;5055339;28;20579;-76
2021/09/11 12:36:42;;;;;;;1.40;0.60;;;27.90;69.70;;;;;;5073381;28;20633;-75
2021/09/11 12:39:25;;;;;;;1.97;0.90;;;28.10;70.60;;;;;;5073224;28;20628;-75
2021/09/11 12:41:52;;;;;;;2.33;2.03;;;28.30;71.10;;;;;;5055598;28;20575;-75
2021/09/11 12:44:29;;;;;;;3.67;3.33;;;28.40;70.40;;;;;;5055372;28;20571;-75
2021/09/11 12:46:57;;;;;;;1.70;1.10;;;28.60;69.70;;;;;;5073053;28;20949;-75
2021/09/11 12:49:24;;;;;;;2.90;0.90;;;28.70;69.80;;;;;;5058081;28;20610;-75
2021/09/11 12:51:54;;;;;;;1.50;0.90;;;28.70;69.40;;;;;;5055546;28;20567;-75
2021/09/11 12:54:21;;;;;;;1.80;0.87;;;28.80;69.20;;;;;;5073519;28;20625;-75